sensor_id;sensor_type;location;lat;lon;timestamp;P1;durP1;ratioP1;P2;durP2;ratioP2
48667;SDS011;34453;52.198;5.004;2023-02-19T00:01:08;14.23;;;4.35;;
48667;SDS011;34453;52.198;5.004;2023-02-19T00:03:33;25.30;;;5.15;;
48667;SDS011;34453;52.198;5.004;2023-02-19T00:06:04;21.75;;;5.60;;
48667;SDS011;34453;52.198;5.004;2023-02-19T00:08:31;15.40;;;4.05;;
48667;SDS011;34453;52.198;5.004;2023-02-19T00:11:00;12.23;;;3.67;;
48667;SDS011;34453;52.198;5.004;2023-02-19T00:13:28;25.02;;;7.13;;
48667;SDS011;34453;52.198;5.004;2023-02-19T00:15:53;26.55;;;7.80;;
48667;SDS011;34453;52.198;5.004;2023-02-19T00:18:20;14.55;;;5.22;;
48667;SDS011;34453;52.198;5.004;2023-02-19T00:20:45;11.07;;;3.42;;
48667;SDS011;34453;52.198;5.004;2023-02-19T00:23:10;19.08;;;5.03;;
48667;SDS011;34453;52.198;5.004;2023-02-19T00:25:36;9.93;;;4.03;;
48667;SDS011;34453;52.198;5.004;2023-02-19T00:28:02;14.88;;;4.72;;
48667;SDS011;34453;52.198;5.004;2023-02-19T00:30:27;11.98;;;4.35;;
48667;SDS011;34453;52.198;5.004;2023-02-19T00:32:52;21.23;;;5.70;;
48667;SDS011;34453;52.198;5.004;2023-02-19T00:35:19;25.23;;;6.18;;
48667;SDS011;34453;52.198;5.004;2023-02-19T00:37:44;17.20;;;5.28;;
48667;SDS011;34453;52.198;5.004;2023-02-19T00:40:09;12.88;;;4.10;;
48667;SDS011;34453;52.198;5.004;2023-02-19T00:42:35;22.23;;;5.10;;
48667;SDS011;34453;52.198;5.004;2023-02-19T00:45:00;21.80;;;5.30;;
48667;SDS011;34453;52.198;5.004;2023-02-19T00:47:25;29.95;;;6.03;;
48667;SDS011;34453;52.198;5.004;2023-02-19T00:49:50;24.15;;;5.95;;
48667;SDS011;34453;52.198;5.004;2023-02-19T00:52:16;22.80;;;6.85;;
48667;SDS011;34453;52.198;5.004;2023-02-19T00:54:41;19.98;;;6.50;;
48667;SDS011;34453;52.198;5.004;2023-02-19T00:57:06;21.80;;;5.90;;
48667;SDS011;34453;52.198;5.004;2023-02-19T00:59:31;36.10;;;7.95;;
48667;SDS011;34453;52.198;5.004;2023-02-19T01:01:57;19.13;;;5.90;;
48667;SDS011;34453;52.198;5.004;2023-02-19T01:04:22;32.22;;;7.35;;
48667;SDS011;34453;52.198;5.004;2023-02-19T01:06:47;22.48;;;7.15;;
48667;SDS011;34453;52.198;5.004;2023-02-19T01:09:13;27.10;;;6.32;;
48667;SDS011;34453;52.198;5.004;2023-02-19T01:11:38;16.85;;;7.18;;
48667;SDS011;34453;52.198;5.004;2023-02-19T01:14:03;11.90;;;5.75;;
48667;SDS011;34453;52.198;5.004;2023-02-19T01:16:29;17.05;;;6.88;;
48667;SDS011;34453;52.198;5.004;2023-02-19T01:18:55;24.70;;;6.13;;
48667;SDS011;34453;52.198;5.004;2023-02-19T01:21:22;21.15;;;6.90;;
48667;SDS011;34453;52.198;5.004;2023-02-19T01:23:48;26.15;;;5.97;;
48667;SDS011;34453;52.198;5.004;2023-02-19T01:26:15;19.70;;;6.10;;
48667;SDS011;34453;52.198;5.004;2023-02-19T01:28:41;16.75;;;6.00;;
48667;SDS011;34453;52.198;5.004;2023-02-19T01:31:07;16.42;;;5.28;;
48667;SDS011;34453;52.198;5.004;2023-02-19T01:33:34;13.35;;;5.10;;
48667;SDS011;34453;52.198;5.004;2023-02-19T01:36:02;24.35;;;7.97;;
48667;SDS011;34453;52.198;5.004;2023-02-19T01:38:27;18.77;;;5.40;;
48667;SDS011;34453;52.198;5.004;2023-02-19T01:40:56;13.82;;;5.82;;
48667;SDS011;34453;52.198;5.004;2023-02-19T01:43:23;22.67;;;5.97;;
48667;SDS011;34453;52.198;5.004;2023-02-19T01:45:48;29.50;;;6.03;;
48667;SDS011;34453;52.198;5.004;2023-02-19T01:48:18;25.30;;;6.10;;
48667;SDS011;34453;52.198;5.004;2023-02-19T01:50:55;13.77;;;4.80;;
48667;SDS011;34453;52.198;5.004;2023-02-19T01:53:23;21.05;;;4.80;;
48667;SDS011;34453;52.198;5.004;2023-02-19T01:55:50;21.15;;;5.65;;
48667;SDS011;34453;52.198;5.004;2023-02-19T01:58:17;19.40;;;4.72;;
48667;SDS011;34453;52.198;5.004;2023-02-19T02:00:42;21.58;;;5.45;;
48667;SDS011;34453;52.198;5.004;2023-02-19T02:03:07;15.70;;;3.92;;
48667;SDS011;34453;52.198;5.004;2023-02-19T02:08:01;17.05;;;4.65;;
48667;SDS011;34453;52.198;5.004;2023-02-19T02:10:45;14.50;;;4.57;;
48667;SDS011;34453;52.198;5.004;2023-02-19T02:13:11;12.93;;;3.50;;
48667;SDS011;34453;52.198;5.004;2023-02-19T02:15:43;16.42;;;3.42;;
48667;SDS011;34453;52.198;5.004;2023-02-19T02:18:23;17.10;;;4.32;;
48667;SDS011;34453;52.198;5.004;2023-02-19T02:20:57;14.73;;;2.95;;
48667;SDS011;34453;52.198;5.004;2023-02-19T02:32:29;20.40;;;4.55;;
48667;SDS011;34453;52.198;5.004;2023-02-19T02:35:08;9.60;;;2.85;;
48667;SDS011;34453;52.198;5.004;2023-02-19T02:37:26;9.35;;;3.25;;
48667;SDS011;34453;52.198;5.004;2023-02-19T02:39:54;13.60;;;3.22;;
48667;SDS011;34453;52.198;5.004;2023-02-19T02:42:22;13.10;;;3.80;;
48667;SDS011;34453;52.198;5.004;2023-02-19T02:44:56;11.43;;;3.40;;
48667;SDS011;34453;52.198;5.004;2023-02-19T02:50:06;25.20;;;4.63;;
48667;SDS011;34453;52.198;5.004;2023-02-19T02:52:33;22.67;;;5.38;;
48667;SDS011;34453;52.198;5.004;2023-02-19T02:55:18;16.20;;;4.32;;
48667;SDS011;34453;52.198;5.004;2023-02-19T02:57:44;15.88;;;4.38;;
48667;SDS011;34453;52.198;5.004;2023-02-19T03:00:10;23.02;;;4.95;;
48667;SDS011;34453;52.198;5.004;2023-02-19T03:02:35;23.48;;;4.95;;
48667;SDS011;34453;52.198;5.004;2023-02-19T03:05:09;21.00;;;4.95;;
48667;SDS011;34453;52.198;5.004;2023-02-19T03:07:57;17.02;;;4.30;;
48667;SDS011;34453;52.198;5.004;2023-02-19T03:13:29;24.60;;;4.28;;
48667;SDS011;34453;52.198;5.004;2023-02-19T03:16:22;19.40;;;4.35;;
48667;SDS011;34453;52.198;5.004;2023-02-19T03:19:07;15.52;;;4.40;;
48667;SDS011;34453;52.198;5.004;2023-02-19T03:22:00;14.90;;;5.15;;
48667;SDS011;34453;52.198;5.004;2023-02-19T03:24:34;11.77;;;5.03;;
48667;SDS011;34453;52.198;5.004;2023-02-19T03:27:19;19.75;;;4.07;;
48667;SDS011;34453;52.198;5.004;2023-02-19T03:29:45;16.42;;;3.95;;
48667;SDS011;34453;52.198;5.004;2023-02-19T03:32:33;16.75;;;3.97;;
48667;SDS011;34453;52.198;5.004;2023-02-19T03:35:05;14.57;;;3.60;;
48667;SDS011;34453;52.198;5.004;2023-02-19T03:37:41;19.02;;;3.80;;
48667;SDS011;34453;52.198;5.004;2023-02-19T03:40:08;9.85;;;3.83;;
48667;SDS011;34453;52.198;5.004;2023-02-19T03:45:22;15.98;;;4.53;;
48667;SDS011;34453;52.198;5.004;2023-02-19T03:48:13;13.82;;;4.85;;
48667;SDS011;34453;52.198;5.004;2023-02-19T03:50:44;16.10;;;4.00;;
48667;SDS011;34453;52.198;5.004;2023-02-19T03:58:26;18.25;;;4.28;;
48667;SDS011;34453;52.198;5.004;2023-02-19T04:01:01;15.25;;;4.30;;
48667;SDS011;34453;52.198;5.004;2023-02-19T04:05:55;12.93;;;5.30;;
48667;SDS011;34453;52.198;5.004;2023-02-19T04:08:23;15.73;;;5.07;;
48667;SDS011;34453;52.198;5.004;2023-02-19T04:10:49;16.52;;;3.60;;
48667;SDS011;34453;52.198;5.004;2023-02-19T04:13:19;9.30;;;3.40;;
48667;SDS011;34453;52.198;5.004;2023-02-19T04:15:46;19.70;;;5.35;;
48667;SDS011;34453;52.198;5.004;2023-02-19T04:18:21;17.05;;;3.50;;
48667;SDS011;34453;52.198;5.004;2023-02-19T04:20:46;21.45;;;4.15;;
48667;SDS011;34453;52.198;5.004;2023-02-19T04:23:12;29.48;;;4.03;;
48667;SDS011;34453;52.198;5.004;2023-02-19T04:25:38;11.55;;;4.20;;
48667;SDS011;34453;52.198;5.004;2023-02-19T04:28:06;27.67;;;4.35;;
48667;SDS011;34453;52.198;5.004;2023-02-19T04:30:31;11.55;;;4.00;;
48667;SDS011;34453;52.198;5.004;2023-02-19T04:32:57;15.50;;;2.90;;
48667;SDS011;34453;52.198;5.004;2023-02-19T04:35:22;12.38;;;3.70;;
48667;SDS011;34453;52.198;5.004;2023-02-19T04:37:47;21.23;;;3.47;;
48667;SDS011;34453;52.198;5.004;2023-02-19T04:40:12;16.02;;;3.33;;
48667;SDS011;34453;52.198;5.004;2023-02-19T04:42:38;12.80;;;3.22;;
48667;SDS011;34453;52.198;5.004;2023-02-19T04:45:03;20.02;;;5.22;;
48667;SDS011;34453;52.198;5.004;2023-02-19T04:47:30;29.35;;;4.50;;
48667;SDS011;34453;52.198;5.004;2023-02-19T04:49:55;22.30;;;3.45;;
48667;SDS011;34453;52.198;5.004;2023-02-19T04:52:21;16.15;;;3.15;;
48667;SDS011;34453;52.198;5.004;2023-02-19T04:54:46;14.20;;;3.33;;
48667;SDS011;34453;52.198;5.004;2023-02-19T04:57:11;15.63;;;3.58;;
48667;SDS011;34453;52.198;5.004;2023-02-19T04:59:36;15.93;;;5.10;;
48667;SDS011;34453;52.198;5.004;2023-02-19T05:02:02;19.42;;;3.63;;
48667;SDS011;34453;52.198;5.004;2023-02-19T05:04:27;22.65;;;3.40;;
48667;SDS011;34453;52.198;5.004;2023-02-19T05:06:52;15.50;;;5.10;;
48667;SDS011;34453;52.198;5.004;2023-02-19T05:09:17;9.75;;;2.72;;
48667;SDS011;34453;52.198;5.004;2023-02-19T05:11:43;10.55;;;2.53;;
48667;SDS011;34453;52.198;5.004;2023-02-19T05:14:08;14.93;;;3.50;;
48667;SDS011;34453;52.198;5.004;2023-02-19T05:16:33;18.95;;;3.33;;
48667;SDS011;34453;52.198;5.004;2023-02-19T05:18:59;20.38;;;3.20;;
48667;SDS011;34453;52.198;5.004;2023-02-19T05:21:24;19.60;;;3.50;;
48667;SDS011;34453;52.198;5.004;2023-02-19T05:23:49;19.60;;;3.28;;
48667;SDS011;34453;52.198;5.004;2023-02-19T05:26:15;16.95;;;3.40;;
48667;SDS011;34453;52.198;5.004;2023-02-19T05:28:42;21.15;;;4.20;;
48667;SDS011;34453;52.198;5.004;2023-02-19T05:31:07;13.02;;;3.45;;
48667;SDS011;34453;52.198;5.004;2023-02-19T05:33:33;17.10;;;3.50;;
48667;SDS011;34453;52.198;5.004;2023-02-19T05:35:58;14.20;;;3.97;;
48667;SDS011;34453;52.198;5.004;2023-02-19T05:38:24;17.48;;;3.72;;
48667;SDS011;34453;52.198;5.004;2023-02-19T05:40:49;22.52;;;4.05;;
48667;SDS011;34453;52.198;5.004;2023-02-19T05:43:15;16.60;;;4.90;;
48667;SDS011;34453;52.198;5.004;2023-02-19T05:45:40;17.17;;;4.30;;
48667;SDS011;34453;52.198;5.004;2023-02-19T05:48:06;21.67;;;4.65;;
48667;SDS011;34453;52.198;5.004;2023-02-19T05:50:32;22.40;;;5.00;;
48667;SDS011;34453;52.198;5.004;2023-02-19T05:52:59;14.68;;;5.13;;
48667;SDS011;34453;52.198;5.004;2023-02-19T05:55:25;16.30;;;4.63;;
48667;SDS011;34453;52.198;5.004;2023-02-19T05:57:50;16.23;;;4.32;;
48667;SDS011;34453;52.198;5.004;2023-02-19T06:00:16;11.43;;;3.63;;
48667;SDS011;34453;52.198;5.004;2023-02-19T06:02:42;16.42;;;4.65;;
48667;SDS011;34453;52.198;5.004;2023-02-19T06:05:07;14.15;;;3.65;;
48667;SDS011;34453;52.198;5.004;2023-02-19T06:07:33;15.18;;;6.28;;
48667;SDS011;34453;52.198;5.004;2023-02-19T06:09:58;11.30;;;4.28;;
48667;SDS011;34453;52.198;5.004;2023-02-19T06:12:23;18.55;;;4.65;;
48667;SDS011;34453;52.198;5.004;2023-02-19T06:14:48;16.48;;;4.97;;
48667;SDS011;34453;52.198;5.004;2023-02-19T06:17:14;16.17;;;5.72;;
48667;SDS011;34453;52.198;5.004;2023-02-19T06:19:39;17.70;;;4.50;;
48667;SDS011;34453;52.198;5.004;2023-02-19T06:22:04;10.48;;;4.22;;
48667;SDS011;34453;52.198;5.004;2023-02-19T06:24:29;20.13;;;5.47;;
48667;SDS011;34453;52.198;5.004;2023-02-19T06:26:55;21.48;;;5.32;;
48667;SDS011;34453;52.198;5.004;2023-02-19T06:29:20;17.40;;;4.57;;
48667;SDS011;34453;52.198;5.004;2023-02-19T06:31:45;12.98;;;4.20;;
48667;SDS011;34453;52.198;5.004;2023-02-19T06:34:11;17.77;;;6.05;;
48667;SDS011;34453;52.198;5.004;2023-02-19T06:36:36;9.75;;;4.03;;
48667;SDS011;34453;52.198;5.004;2023-02-19T06:39:03;14.68;;;5.40;;
48667;SDS011;34453;52.198;5.004;2023-02-19T06:41:28;8.50;;;4.40;;
48667;SDS011;34453;52.198;5.004;2023-02-19T06:43:53;23.05;;;5.38;;
48667;SDS011;34453;52.198;5.004;2023-02-19T06:46:20;16.77;;;4.93;;
48667;SDS011;34453;52.198;5.004;2023-02-19T06:48:45;25.17;;;5.35;;
48667;SDS011;34453;52.198;5.004;2023-02-19T06:51:11;22.13;;;5.65;;
48667;SDS011;34453;52.198;5.004;2023-02-19T06:53:37;18.00;;;4.72;;
48667;SDS011;34453;52.198;5.004;2023-02-19T06:56:22;17.23;;;5.07;;
48667;SDS011;34453;52.198;5.004;2023-02-19T06:58:49;25.65;;;5.43;;
48667;SDS011;34453;52.198;5.004;2023-02-19T07:01:14;14.27;;;5.35;;
48667;SDS011;34453;52.198;5.004;2023-02-19T07:03:40;16.98;;;6.28;;
48667;SDS011;34453;52.198;5.004;2023-02-19T07:06:05;39.55;;;7.88;;
48667;SDS011;34453;52.198;5.004;2023-02-19T07:08:31;27.15;;;7.13;;
48667;SDS011;34453;52.198;5.004;2023-02-19T07:10:56;17.83;;;6.35;;
48667;SDS011;34453;52.198;5.004;2023-02-19T07:13:25;15.98;;;6.10;;
48667;SDS011;34453;52.198;5.004;2023-02-19T07:15:51;16.83;;;6.15;;
48667;SDS011;34453;52.198;5.004;2023-02-19T07:18:16;21.58;;;7.15;;
48667;SDS011;34453;52.198;5.004;2023-02-19T07:20:42;27.98;;;8.90;;
48667;SDS011;34453;52.198;5.004;2023-02-19T07:23:07;28.52;;;6.13;;
48667;SDS011;34453;52.198;5.004;2023-02-19T07:25:32;21.27;;;7.53;;
48667;SDS011;34453;52.198;5.004;2023-02-19T07:27:57;16.55;;;7.97;;
48667;SDS011;34453;52.198;5.004;2023-02-19T07:30:23;22.55;;;7.45;;
48667;SDS011;34453;52.198;5.004;2023-02-19T07:32:48;17.05;;;6.15;;
48667;SDS011;34453;52.198;5.004;2023-02-19T07:35:13;17.98;;;6.95;;
48667;SDS011;34453;52.198;5.004;2023-02-19T07:37:41;27.50;;;7.80;;
48667;SDS011;34453;52.198;5.004;2023-02-19T07:40:07;18.13;;;7.28;;
48667;SDS011;34453;52.198;5.004;2023-02-19T07:42:32;24.67;;;7.85;;
48667;SDS011;34453;52.198;5.004;2023-02-19T07:44:57;23.23;;;6.95;;
48667;SDS011;34453;52.198;5.004;2023-02-19T07:47:23;24.95;;;7.05;;
48667;SDS011;34453;52.198;5.004;2023-02-19T07:49:48;26.40;;;7.28;;
48667;SDS011;34453;52.198;5.004;2023-02-19T07:52:13;21.08;;;6.88;;
48667;SDS011;34453;52.198;5.004;2023-02-19T07:54:38;13.85;;;6.20;;
48667;SDS011;34453;52.198;5.004;2023-02-19T07:57:04;13.07;;;5.72;;
48667;SDS011;34453;52.198;5.004;2023-02-19T07:59:29;9.25;;;5.32;;
48667;SDS011;34453;52.198;5.004;2023-02-19T08:01:54;20.67;;;5.78;;
48667;SDS011;34453;52.198;5.004;2023-02-19T08:04:38;13.10;;;6.03;;
48667;SDS011;34453;52.198;5.004;2023-02-19T08:07:03;18.95;;;6.25;;
48667;SDS011;34453;52.198;5.004;2023-02-19T08:09:29;19.08;;;7.30;;
48667;SDS011;34453;52.198;5.004;2023-02-19T08:11:54;17.85;;;6.93;;
48667;SDS011;34453;52.198;5.004;2023-02-19T08:14:38;28.65;;;7.88;;
48667;SDS011;34453;52.198;5.004;2023-02-19T08:17:04;21.52;;;8.80;;
48667;SDS011;34453;52.198;5.004;2023-02-19T08:19:29;25.17;;;7.43;;
48667;SDS011;34453;52.198;5.004;2023-02-19T08:21:54;24.98;;;7.53;;
48667;SDS011;34453;52.198;5.004;2023-02-19T08:24:20;20.90;;;7.18;;
48667;SDS011;34453;52.198;5.004;2023-02-19T08:26:45;21.13;;;8.07;;
48667;SDS011;34453;52.198;5.004;2023-02-19T08:29:10;27.23;;;7.63;;
48667;SDS011;34453;52.198;5.004;2023-02-19T08:31:36;19.95;;;7.03;;
48667;SDS011;34453;52.198;5.004;2023-02-19T08:34:01;23.88;;;7.70;;
48667;SDS011;34453;52.198;5.004;2023-02-19T08:36:26;28.90;;;9.05;;
48667;SDS011;34453;52.198;5.004;2023-02-19T08:38:52;35.05;;;9.48;;
48667;SDS011;34453;52.198;5.004;2023-02-19T08:41:17;25.63;;;7.38;;
48667;SDS011;34453;52.198;5.004;2023-02-19T08:43:42;27.25;;;7.32;;
48667;SDS011;34453;52.198;5.004;2023-02-19T08:46:08;23.73;;;7.03;;
48667;SDS011;34453;52.198;5.004;2023-02-19T08:48:34;27.77;;;7.22;;
48667;SDS011;34453;52.198;5.004;2023-02-19T08:51:00;22.95;;;5.78;;
48667;SDS011;34453;52.198;5.004;2023-02-19T08:53:28;24.90;;;5.78;;
48667;SDS011;34453;52.198;5.004;2023-02-19T08:55:53;17.95;;;5.50;;
48667;SDS011;34453;52.198;5.004;2023-02-19T08:58:19;22.38;;;5.68;;
48667;SDS011;34453;52.198;5.004;2023-02-19T09:00:44;23.58;;;6.30;;
48667;SDS011;34453;52.198;5.004;2023-02-19T09:03:09;20.92;;;5.38;;
48667;SDS011;34453;52.198;5.004;2023-02-19T09:05:34;17.30;;;4.95;;
48667;SDS011;34453;52.198;5.004;2023-02-19T09:08:00;18.85;;;4.28;;
48667;SDS011;34453;52.198;5.004;2023-02-19T09:10:25;26.85;;;6.10;;
48667;SDS011;34453;52.198;5.004;2023-02-19T09:12:50;16.25;;;5.35;;
48667;SDS011;34453;52.198;5.004;2023-02-19T09:15:16;19.42;;;5.20;;
48667;SDS011;34453;52.198;5.004;2023-02-19T09:17:42;12.77;;;4.47;;
48667;SDS011;34453;52.198;5.004;2023-02-19T09:20:07;11.90;;;4.68;;
48667;SDS011;34453;52.198;5.004;2023-02-19T09:22:33;12.48;;;5.13;;
48667;SDS011;34453;52.198;5.004;2023-02-19T09:24:59;25.92;;;6.65;;
48667;SDS011;34453;52.198;5.004;2023-02-19T09:27:24;28.30;;;5.72;;
48667;SDS011;34453;52.198;5.004;2023-02-19T09:29:49;17.55;;;5.10;;
48667;SDS011;34453;52.198;5.004;2023-02-19T09:32:14;18.98;;;5.53;;
48667;SDS011;34453;52.198;5.004;2023-02-19T09:34:40;19.08;;;5.53;;
48667;SDS011;34453;52.198;5.004;2023-02-19T09:37:06;17.77;;;5.03;;
48667;SDS011;34453;52.198;5.004;2023-02-19T09:39:31;23.65;;;5.93;;
48667;SDS011;34453;52.198;5.004;2023-02-19T09:41:57;17.25;;;4.75;;
48667;SDS011;34453;52.198;5.004;2023-02-19T09:44:28;21.85;;;4.60;;
48667;SDS011;34453;52.198;5.004;2023-02-19T09:46:54;20.90;;;5.15;;
48667;SDS011;34453;52.198;5.004;2023-02-19T09:49:26;22.73;;;4.63;;
48667;SDS011;34453;52.198;5.004;2023-02-19T09:52:14;14.98;;;4.22;;
48667;SDS011;34453;52.198;5.004;2023-02-19T09:54:40;13.35;;;4.78;;
48667;SDS011;34453;52.198;5.004;2023-02-19T09:57:10;21.27;;;4.97;;
48667;SDS011;34453;52.198;5.004;2023-02-19T09:59:42;15.73;;;5.00;;
48667;SDS011;34453;52.198;5.004;2023-02-19T10:02:18;20.08;;;5.95;;
48667;SDS011;34453;52.198;5.004;2023-02-19T10:04:44;14.68;;;4.93;;
48667;SDS011;34453;52.198;5.004;2023-02-19T10:07:23;18.02;;;5.13;;
48667;SDS011;34453;52.198;5.004;2023-02-19T10:09:54;19.92;;;4.85;;
48667;SDS011;34453;52.198;5.004;2023-02-19T10:12:25;12.43;;;4.97;;
48667;SDS011;34453;52.198;5.004;2023-02-19T10:14:52;14.27;;;4.10;;
48667;SDS011;34453;52.198;5.004;2023-02-19T10:17:21;11.13;;;3.65;;
48667;SDS011;34453;52.198;5.004;2023-02-19T10:19:47;10.38;;;2.28;;
48667;SDS011;34453;52.198;5.004;2023-02-19T10:22:13;10.68;;;1.77;;
48667;SDS011;34453;52.198;5.004;2023-02-19T10:24:38;6.75;;;4.35;;
48667;SDS011;34453;52.198;5.004;2023-02-19T10:27:05;4.47;;;3.05;;
48667;SDS011;34453;52.198;5.004;2023-02-19T10:29:30;3.40;;;3.10;;
48667;SDS011;34453;52.198;5.004;2023-02-19T10:34:42;2.92;;;2.17;;
48667;SDS011;34453;52.198;5.004;2023-02-19T10:37:09;1.55;;;1.38;;
48667;SDS011;34453;52.198;5.004;2023-02-19T10:39:38;1.80;;;1.70;;
48667;SDS011;34453;52.198;5.004;2023-02-19T10:42:12;1.83;;;1.73;;
48667;SDS011;34453;52.198;5.004;2023-02-19T10:44:40;1.55;;;1.45;;
48667;SDS011;34453;52.198;5.004;2023-02-19T10:47:06;2.33;;;1.55;;
48667;SDS011;34453;52.198;5.004;2023-02-19T10:49:36;1.60;;;1.50;;
48667;SDS011;34453;52.198;5.004;2023-02-19T10:52:20;2.20;;;2.10;;
48667;SDS011;34453;52.198;5.004;2023-02-19T10:54:50;2.55;;;2.35;;
48667;SDS011;34453;52.198;5.004;2023-02-19T11:00:02;2.50;;;2.30;;
48667;SDS011;34453;52.198;5.004;2023-02-19T11:02:28;8.43;;;2.83;;
48667;SDS011;34453;52.198;5.004;2023-02-19T11:05:01;1.88;;;1.77;;
48667;SDS011;34453;52.198;5.004;2023-02-19T11:07:27;2.28;;;2.08;;
48667;SDS011;34453;52.198;5.004;2023-02-19T11:09:52;2.28;;;2.05;;
48667;SDS011;34453;52.198;5.004;2023-02-19T11:12:22;2.90;;;2.63;;
48667;SDS011;34453;52.198;5.004;2023-02-19T11:14:48;3.00;;;2.80;;
48667;SDS011;34453;52.198;5.004;2023-02-19T11:19:50;3.35;;;3.10;;
48667;SDS011;34453;52.198;5.004;2023-02-19T11:22:29;3.20;;;3.00;;
48667;SDS011;34453;52.198;5.004;2023-02-19T11:24:55;9.10;;;4.30;;
48667;SDS011;34453;52.198;5.004;2023-02-19T11:27:24;5.88;;;3.70;;
48667;SDS011;34453;52.198;5.004;2023-02-19T11:29:50;4.18;;;3.55;;
48667;SDS011;34453;52.198;5.004;2023-02-19T11:34:43;5.95;;;4.07;;
48667;SDS011;34453;52.198;5.004;2023-02-19T11:37:13;5.65;;;4.47;;
48667;SDS011;34453;52.198;5.004;2023-02-19T11:39:39;5.60;;;4.38;;
48667;SDS011;34453;52.198;5.004;2023-02-19T11:42:14;4.40;;;4.00;;
48667;SDS011;34453;52.198;5.004;2023-02-19T11:55:17;5.88;;;3.85;;
48667;SDS011;34453;52.198;5.004;2023-02-19T11:57:45;4.05;;;3.40;;
48667;SDS011;34453;52.198;5.004;2023-02-19T12:00:30;3.83;;;3.53;;
48667;SDS011;34453;52.198;5.004;2023-02-19T12:08:01;3.50;;;3.20;;
48667;SDS011;34453;52.198;5.004;2023-02-19T12:10:50;3.70;;;2.88;;
48667;SDS011;34453;52.198;5.004;2023-02-19T12:13:31;3.65;;;3.20;;
48667;SDS011;34453;52.198;5.004;2023-02-19T12:16:42;3.90;;;2.90;;
48667;SDS011;34453;52.198;5.004;2023-02-19T12:22:05;2.67;;;2.47;;
48667;SDS011;34453;52.198;5.004;2023-02-19T12:37:31;3.30;;;2.60;;
48667;SDS011;34453;52.198;5.004;2023-02-19T12:44:56;2.90;;;1.85;;
48667;SDS011;34453;52.198;5.004;2023-02-19T12:47:24;3.75;;;2.08;;
48667;SDS011;34453;52.198;5.004;2023-02-19T12:50:01;3.30;;;2.25;;
48667;SDS011;34453;52.198;5.004;2023-02-19T12:52:33;3.53;;;2.47;;
48667;SDS011;34453;52.198;5.004;2023-02-19T12:55:06;2.53;;;2.33;;
48667;SDS011;34453;52.198;5.004;2023-02-19T12:57:35;6.00;;;2.22;;
48667;SDS011;34453;52.198;5.004;2023-02-19T13:00:02;1.95;;;1.85;;
48667;SDS011;34453;52.198;5.004;2023-02-19T13:02:37;3.88;;;1.70;;
48667;SDS011;34453;52.198;5.004;2023-02-19T13:07:55;1.40;;;1.30;;
48667;SDS011;34453;52.198;5.004;2023-02-19T13:10:27;1.63;;;1.40;;
48667;SDS011;34453;52.198;5.004;2023-02-19T13:12:54;1.45;;;0.93;;
48667;SDS011;34453;52.198;5.004;2023-02-19T13:15:38;3.20;;;0.90;;
48667;SDS011;34453;52.198;5.004;2023-02-19T13:18:08;5.05;;;1.25;;
48667;SDS011;34453;52.198;5.004;2023-02-19T13:20:41;0.80;;;0.80;;
48667;SDS011;34453;52.198;5.004;2023-02-19T13:23:08;1.10;;;1.00;;
48667;SDS011;34453;52.198;5.004;2023-02-19T13:28:27;0.90;;;0.60;;
48667;SDS011;34453;52.198;5.004;2023-02-19T13:31:01;1.55;;;0.70;;
48667;SDS011;34453;52.198;5.004;2023-02-19T13:33:31;4.40;;;0.95;;
48667;SDS011;34453;52.198;5.004;2023-02-19T13:36:00;1.15;;;0.80;;
48667;SDS011;34453;52.198;5.004;2023-02-19T13:38:30;1.10;;;0.95;;
48667;SDS011;34453;52.198;5.004;2023-02-19T13:40:56;1.23;;;0.98;;
48667;SDS011;34453;52.198;5.004;2023-02-19T13:43:27;1.63;;;1.13;;
48667;SDS011;34453;52.198;5.004;2023-02-19T13:45:57;1.50;;;0.90;;
48667;SDS011;34453;52.198;5.004;2023-02-19T13:50:48;1.75;;;0.93;;
48667;SDS011;34453;52.198;5.004;2023-02-19T13:55:58;1.27;;;1.00;;
48667;SDS011;34453;52.198;5.004;2023-02-19T14:03:47;2.08;;;1.40;;
48667;SDS011;34453;52.198;5.004;2023-02-19T14:06:11;2.47;;;1.20;;
48667;SDS011;34453;52.198;5.004;2023-02-19T14:08:55;1.58;;;1.45;;
48667;SDS011;34453;52.198;5.004;2023-02-19T14:16:50;1.38;;;1.23;;
48667;SDS011;34453;52.198;5.004;2023-02-19T14:20:01;1.27;;;1.27;;
48667;SDS011;34453;52.198;5.004;2023-02-19T14:22:03;1.50;;;1.50;;
48667;SDS011;34453;52.198;5.004;2023-02-19T14:24:46;2.70;;;1.65;;
48667;SDS011;34453;52.198;5.004;2023-02-19T14:27:12;7.25;;;1.92;;
48667;SDS011;34453;52.198;5.004;2023-02-19T14:29:38;1.48;;;1.40;;
48667;SDS011;34453;52.198;5.004;2023-02-19T14:32:04;7.43;;;1.35;;
48667;SDS011;34453;52.198;5.004;2023-02-19T14:34:29;3.80;;;1.60;;
48667;SDS011;34453;52.198;5.004;2023-02-19T14:36:56;3.42;;;1.77;;
48667;SDS011;34453;52.198;5.004;2023-02-19T14:39:29;1.27;;;1.20;;
48667;SDS011;34453;52.198;5.004;2023-02-19T14:41:56;1.70;;;1.60;;
48667;SDS011;34453;52.198;5.004;2023-02-19T14:44:24;1.65;;;1.55;;
48667;SDS011;34453;52.198;5.004;2023-02-19T14:46:51;3.90;;;3.10;;
48667;SDS011;34453;52.198;5.004;2023-02-19T14:51:46;2.22;;;1.70;;
48667;SDS011;34453;52.198;5.004;2023-02-19T14:54:16;1.55;;;1.38;;
48667;SDS011;34453;52.198;5.004;2023-02-19T14:56:43;3.38;;;1.67;;
48667;SDS011;34453;52.198;5.004;2023-02-19T15:01:36;2.15;;;1.65;;
48667;SDS011;34453;52.198;5.004;2023-02-19T15:04:01;2.00;;;1.90;;
48667;SDS011;34453;52.198;5.004;2023-02-19T15:06:26;2.08;;;1.50;;
48667;SDS011;34453;52.198;5.004;2023-02-19T15:08:55;1.23;;;1.20;;
48667;SDS011;34453;52.198;5.004;2023-02-19T15:11:22;1.17;;;1.17;;
48667;SDS011;34453;52.198;5.004;2023-02-19T15:13:53;1.17;;;1.17;;
48667;SDS011;34453;52.198;5.004;2023-02-19T15:16:20;1.52;;;1.42;;
48667;SDS011;34453;52.198;5.004;2023-02-19T15:18:46;2.80;;;1.23;;
48667;SDS011;34453;52.198;5.004;2023-02-19T15:21:26;2.75;;;1.90;;
48667;SDS011;34453;52.198;5.004;2023-02-19T15:23:55;1.67;;;1.58;;
48667;SDS011;34453;52.198;5.004;2023-02-19T15:26:22;2.90;;;1.60;;
48667;SDS011;34453;52.198;5.004;2023-02-19T15:28:55;1.67;;;1.60;;
48667;SDS011;34453;52.198;5.004;2023-02-19T15:31:21;2.38;;;2.00;;
48667;SDS011;34453;52.198;5.004;2023-02-19T15:33:49;2.55;;;2.35;;
48667;SDS011;34453;52.198;5.004;2023-02-19T15:36:16;1.75;;;1.65;;
48667;SDS011;34453;52.198;5.004;2023-02-19T15:38:43;2.10;;;2.00;;
48667;SDS011;34453;52.198;5.004;2023-02-19T15:41:15;4.82;;;2.70;;
48667;SDS011;34453;52.198;5.004;2023-02-19T15:43:45;3.22;;;3.03;;
48667;SDS011;34453;52.198;5.004;2023-02-19T15:46:21;4.47;;;3.45;;
48667;SDS011;34453;52.198;5.004;2023-02-19T15:49:06;4.00;;;3.70;;
48667;SDS011;34453;52.198;5.004;2023-02-19T15:54:06;4.13;;;3.72;;
48667;SDS011;34453;52.198;5.004;2023-02-19T15:59:12;2.03;;;1.92;;
48667;SDS011;34453;52.198;5.004;2023-02-19T16:01:40;0.28;;;0.28;;
48667;SDS011;34453;52.198;5.004;2023-02-19T16:04:15;0.40;;;0.40;;
48667;SDS011;34453;52.198;5.004;2023-02-19T16:06:52;0.63;;;0.22;;
48667;SDS011;34453;52.198;5.004;2023-02-19T16:09:21;0.30;;;0.30;;
48667;SDS011;34453;52.198;5.004;2023-02-19T16:11:51;0.55;;;0.55;;
48667;SDS011;34453;52.198;5.004;2023-02-19T16:16:45;0.40;;;0.40;;
48667;SDS011;34453;52.198;5.004;2023-02-19T16:19:17;0.57;;;0.38;;
48667;SDS011;34453;52.198;5.004;2023-02-19T16:21:43;1.42;;;0.57;;
48667;SDS011;34453;52.198;5.004;2023-02-19T16:24:17;0.52;;;0.50;;
48667;SDS011;34453;52.198;5.004;2023-02-19T16:26:47;0.80;;;0.45;;
48667;SDS011;34453;52.198;5.004;2023-02-19T16:29:16;0.75;;;0.57;;
48667;SDS011;34453;52.198;5.004;2023-02-19T16:31:56;1.02;;;0.70;;
48667;SDS011;34453;52.198;5.004;2023-02-19T16:34:41;1.20;;;0.95;;